Time;durP1;ratioP1;P1;durP2;ratioP2;P2;SDS_P1;SDS_P2;PMS_P1;PMS_P2;Temp;Humidity;BMP_temperature;BMP_pressure;BME280_temperature;BME280_humidity;BME280_pressure;Samples;Min_cycle;Max_cycle;Signal;HPM_P1;HPM_P2
2021/05/31 00:01:58;;;;;;;10.98;5.82;;;17.80;75.70;;;;;;5031988;28;20055;-85
2021/05/31 00:04:24;;;;;;;9.95;6.03;;;17.80;75.80;;;;;;5042214;28;20041;-85
2021/05/31 00:07:01;;;;;;;9.63;6.10;;;17.70;75.90;;;;;;5039725;28;20024;-85
2021/05/31 00:09:27;;;;;;;8.43;5.53;;;17.70;75.60;;;;;;5069568;28;20023;-86
2021/05/31 00:11:53;;;;;;;8.38;5.50;;;17.70;76.40;;;;;;5081657;28;20024;-86
2021/05/31 00:14:19;;;;;;;10.07;5.72;;;17.60;76.40;;;;;;5056165;28;20033;-86
2021/05/31 00:16:44;;;;;;;10.48;5.72;;;17.60;76.80;;;;;;5037869;28;20537;-85
2021/05/31 00:19:12;;;;;;;10.80;5.80;;;17.60;77.00;;;;;;5043221;28;20028;-85
2021/05/31 00:21:38;;;;;;;8.82;5.70;;;17.60;77.10;;;;;;5073421;28;20034;-86
2021/05/31 00:24:05;;;;;;;10.38;6.20;;;17.50;77.50;;;;;;5075130;28;20036;-85
2021/05/31 00:26:31;;;;;;;10.00;6.30;;;17.50;77.80;;;;;;5058834;28;20032;-85
2021/05/31 00:28:57;;;;;;;12.70;6.70;;;17.50;77.50;;;;;;5076279;28;20361;-85
2021/05/31 00:31:22;;;;;;;9.02;5.95;;;17.50;77.90;;;;;;5039715;28;20032;-86
2021/05/31 00:33:48;;;;;;;11.80;7.00;;;17.40;78.40;;;;;;5071209;28;20024;-85
2021/05/31 00:36:16;;;;;;;10.50;6.40;;;17.40;78.40;;;;;;5046993;28;20048;-86
2021/05/31 00:38:41;;;;;;;10.65;6.45;;;17.40;78.50;;;;;;5096640;28;20046;-87
2021/05/31 00:41:07;;;;;;;12.43;7.00;;;17.30;78.60;;;;;;5058915;28;20535;-86
2021/05/31 00:43:34;;;;;;;9.90;6.88;;;17.30;78.90;;;;;;5074316;28;20406;-85
2021/05/31 00:46:04;;;;;;;13.07;7.00;;;17.30;78.90;;;;;;5073653;28;20032;-86
2021/05/31 00:48:30;;;;;;;9.65;6.45;;;17.20;79.10;;;;;;5056723;28;20399;-85
2021/05/31 00:50:57;;;;;;;12.95;7.63;;;17.20;79.30;;;;;;5058842;28;20039;-85
2021/05/31 00:53:23;;;;;;;12.20;7.40;;;17.20;79.30;;;;;;5075856;28;20023;-86
2021/05/31 00:55:49;;;;;;;9.95;6.57;;;17.10;79.50;;;;;;5075390;28;20036;-85
2021/05/31 00:58:15;;;;;;;11.90;6.90;;;17.10;80.00;;;;;;5058698;28;20028;-85
2021/05/31 01:00:42;;;;;;;9.80;7.10;;;17.10;80.20;;;;;;5075635;28;20165;-87
2021/05/31 01:03:08;;;;;;;11.07;7.53;;;17.10;80.30;;;;;;5075176;28;20075;-86
2021/05/31 01:05:34;;;;;;;15.82;7.32;;;17.00;80.00;;;;;;5081471;28;20031;-86
2021/05/31 01:08:07;;;;;;;10.50;7.55;;;17.00;80.40;;;;;;5058337;28;20036;-85
2021/05/31 01:10:48;;;;;;;13.02;8.15;;;16.90;80.40;;;;;;5075449;28;20472;-86
2021/05/31 01:13:19;;;;;;;13.93;8.02;;;16.90;81.40;;;;;;5093623;28;20025;-86
2021/05/31 01:15:53;;;;;;;10.45;7.38;;;16.90;80.80;;;;;;5074847;28;20044;-86
2021/05/31 01:18:39;;;;;;;12.32;8.00;;;16.90;80.70;;;;;;5093485;28;20053;-85
2021/05/31 01:21:36;;;;;;;13.63;8.30;;;16.80;80.90;;;;;;5091806;28;20036;-86
2021/05/31 01:24:23;;;;;;;13.35;8.38;;;16.80;81.50;;;;;;5075208;28;20587;-85
2021/05/31 01:27:11;;;;;;;12.80;8.02;;;16.70;81.80;;;;;;5074203;28;20016;-86
2021/05/31 01:29:40;;;;;;;12.25;8.18;;;16.70;81.70;;;;;;5074845;28;20013;-86
2021/05/31 01:32:09;;;;;;;16.10;8.88;;;16.70;82.20;;;;;;5074411;28;20526;-85
2021/05/31 01:34:36;;;;;;;11.57;8.45;;;16.60;82.20;;;;;;5075092;28;20048;-85
2021/05/31 01:37:05;;;;;;;14.25;9.10;;;16.60;82.60;;;;;;5074563;28;20031;-86
2021/05/31 01:39:34;;;;;;;16.73;9.10;;;16.60;82.00;;;;;;5092838;28;20429;-86
2021/05/31 01:42:01;;;;;;;14.88;8.80;;;16.50;82.80;;;;;;5074363;28;20020;-85
2021/05/31 01:44:27;;;;;;;15.38;9.23;;;16.50;83.20;;;;;;5058010;28;20092;-86
2021/05/31 01:46:53;;;;;;;14.55;9.50;;;16.50;83.00;;;;;;5092388;28;20054;-86
2021/05/31 01:49:21;;;;;;;13.52;9.90;;;16.50;83.30;;;;;;5074600;28;20028;-85
2021/05/31 01:51:47;;;;;;;15.35;9.57;;;16.40;83.40;;;;;;5074100;28;20031;-86
2021/05/31 01:54:14;;;;;;;13.68;9.05;;;16.40;83.80;;;;;;5074515;28;20035;-86
2021/05/31 01:56:43;;;;;;;15.82;10.45;;;16.40;83.70;;;;;;5074035;28;20048;-86
2021/05/31 01:59:10;;;;;;;14.48;9.45;;;16.40;83.70;;;;;;5090786;28;20028;-85
2021/05/31 02:01:36;;;;;;;15.13;9.70;;;16.30;83.60;;;;;;5072409;28;20057;-86
2021/05/31 02:04:02;;;;;;;16.70;10.40;;;16.30;84.00;;;;;;5055513;28;20040;-86
2021/05/31 02:06:28;;;;;;;12.63;10.27;;;16.30;84.00;;;;;;5069272;28;20373;-86
2021/05/31 02:08:53;;;;;;;17.33;10.70;;;16.20;84.00;;;;;;5038698;28;20119;-86
2021/05/31 02:11:41;;;;;;;14.80;10.13;;;16.20;84.20;;;;;;5046545;28;20025;-86
2021/05/31 02:14:48;;;;;;;15.40;10.40;;;16.20;84.30;;;;;;5089561;28;20031;-86
2021/05/31 02:17:23;;;;;;;15.38;10.13;;;16.20;84.60;;;;;;5092030;28;20100;-86
2021/05/31 02:19:53;;;;;;;14.60;10.35;;;16.10;84.80;;;;;;5073632;28;20085;-85
2021/05/31 02:22:20;;;;;;;18.48;11.65;;;16.10;85.00;;;;;;5092141;28;20028;-86
2021/05/31 02:24:47;;;;;;;14.25;10.32;;;16.10;85.40;;;;;;5073781;28;20111;-85
2021/05/31 02:27:15;;;;;;;14.82;9.75;;;16.00;85.40;;;;;;5057076;28;20040;-85
2021/05/31 02:29:41;;;;;;;16.65;10.85;;;16.00;85.60;;;;;;5073748;28;20039;-85
2021/05/31 02:32:07;;;;;;;16.40;10.60;;;15.90;85.60;;;;;;5073359;28;20036;-85
2021/05/31 02:34:33;;;;;;;14.77;10.40;;;15.90;85.80;;;;;;5058547;28;20468;-86
2021/05/31 02:36:59;;;;;;;15.10;10.73;;;15.90;86.30;;;;;;5092109;28;20065;-86
2021/05/31 02:39:25;;;;;;;16.55;11.07;;;15.90;86.10;;;;;;5073704;28;20028;-86
2021/05/31 02:41:50;;;;;;;13.43;10.07;;;15.90;86.00;;;;;;5073530;28;20042;-85
2021/05/31 02:44:16;;;;;;;14.57;11.45;;;15.90;86.30;;;;;;5039512;28;20126;-86
2021/05/31 02:46:42;;;;;;;19.80;11.60;;;15.80;86.40;;;;;;5073533;28;20381;-85
2021/05/31 02:49:08;;;;;;;16.50;10.98;;;15.80;86.40;;;;;;5073990;28;20028;-86
2021/05/31 02:51:34;;;;;;;17.67;12.10;;;15.80;86.30;;;;;;5073244;28;20106;-86
2021/05/31 02:54:00;;;;;;;17.60;11.98;;;15.70;86.70;;;;;;5055622;28;20499;-85
2021/05/31 02:56:26;;;;;;;15.77;10.82;;;15.70;86.70;;;;;;5073673;28;20027;-86
2021/05/31 02:58:52;;;;;;;14.45;11.23;;;15.70;87.10;;;;;;5056522;28;20028;-86
2021/05/31 03:01:18;;;;;;;17.75;10.82;;;15.70;87.10;;;;;;5053249;28;20418;-86
2021/05/31 03:03:44;;;;;;;19.52;11.45;;;15.60;87.70;;;;;;5048900;28;20043;-86
2021/05/31 03:06:10;;;;;;;16.38;11.77;;;15.60;87.30;;;;;;5089895;28;20020;-86
2021/05/31 03:08:35;;;;;;;17.25;11.02;;;15.60;87.40;;;;;;5073702;28;20035;-86
2021/05/31 03:11:01;;;;;;;14.85;11.07;;;15.60;87.50;;;;;;5071413;28;20043;-86
2021/05/31 03:13:27;;;;;;;16.13;11.55;;;15.50;87.60;;;;;;5056268;28;20032;-86
2021/05/31 03:15:53;;;;;;;18.40;11.90;;;15.60;88.00;;;;;;5078542;28;20056;-87
2021/05/31 03:18:20;;;;;;;16.95;11.80;;;15.50;87.90;;;;;;5086483;28;20016;-86
2021/05/31 03:20:46;;;;;;;16.88;11.98;;;15.50;88.30;;;;;;5087272;28;20047;-86
2021/05/31 03:23:11;;;;;;;18.55;11.30;;;15.50;88.50;;;;;;5072893;28;20476;-86
2021/05/31 03:25:38;;;;;;;20.45;12.48;;;15.50;88.50;;;;;;5067253;28;20413;-86
2021/05/31 03:28:03;;;;;;;15.52;11.45;;;15.40;88.70;;;;;;5072840;28;20028;-85
2021/05/31 03:30:29;;;;;;;17.92;11.77;;;15.40;88.70;;;;;;5077642;28;20410;-86
2021/05/31 03:32:56;;;;;;;18.35;12.02;;;15.40;88.70;;;;;;5079822;28;20028;-85
2021/05/31 03:35:22;;;;;;;18.25;11.18;;;15.40;88.50;;;;;;5091225;28;20020;-86
2021/05/31 03:37:48;;;;;;;17.23;11.40;;;15.30;88.70;;;;;;5053374;28;20035;-86
2021/05/31 03:40:17;;;;;;;17.20;11.63;;;15.30;88.90;;;;;;5081161;28;20082;-87
2021/05/31 03:42:42;;;;;;;17.52;11.63;;;15.30;88.70;;;;;;5062912;28;20028;-86
2021/05/31 03:45:09;;;;;;;17.25;11.63;;;15.30;89.10;;;;;;5068548;28;20035;-86
2021/05/31 03:47:35;;;;;;;15.32;11.48;;;15.30;89.30;;;;;;5091330;28;20107;-85
2021/05/31 03:50:02;;;;;;;15.20;12.05;;;15.20;89.40;;;;;;5091003;28;20127;-86
2021/05/31 03:52:27;;;;;;;18.17;11.55;;;15.20;89.20;;;;;;5089354;28;20027;-85
2021/05/31 03:54:53;;;;;;;18.10;11.45;;;15.20;89.40;;;;;;5061454;28;20082;-85
2021/05/31 03:57:19;;;;;;;16.73;11.00;;;15.20;89.50;;;;;;5053525;28;20024;-85
2021/05/31 03:59:47;;;;;;;20.08;12.60;;;15.20;89.60;;;;;;5052835;28;20033;-85
2021/05/31 04:02:13;;;;;;;18.63;12.18;;;15.20;89.70;;;;;;5082237;28;20031;-86
2021/05/31 04:04:41;;;;;;;18.83;12.38;;;15.10;89.90;;;;;;5076735;28;20383;-86
2021/05/31 04:12:36;;;;;;;15.88;11.73;;;15.10;90.00;;;;;;5094834;28;20074;-85
2021/05/31 04:15:03;;;;;;;16.80;12.32;;;15.00;90.00;;;;;;5065837;28;20059;-86
2021/05/31 04:17:29;;;;;;;18.10;11.90;;;15.00;90.10;;;;;;5066405;28;20037;-86
2021/05/31 04:19:54;;;;;;;16.80;12.20;;;15.00;90.10;;;;;;5076564;28;20073;-85
2021/05/31 04:22:20;;;;;;;19.15;13.10;;;15.00;90.20;;;;;;5066321;28;20036;-86
2021/05/31 04:24:46;;;;;;;18.10;12.55;;;15.00;90.30;;;;;;5075142;28;20039;-86
2021/05/31 04:27:11;;;;;;;18.35;13.25;;;15.00;90.40;;;;;;5085730;28;20028;-86
2021/05/31 04:29:37;;;;;;;21.10;14.02;;;15.00;90.40;;;;;;5058922;28;20037;-86
2021/05/31 04:32:03;;;;;;;18.95;13.15;;;15.00;90.60;;;;;;5064769;28;20039;-86
2021/05/31 04:34:29;;;;;;;17.92;13.45;;;15.00;90.60;;;;;;5059560;28;20040;-85
2021/05/31 04:36:55;;;;;;;19.15;12.63;;;15.00;90.60;;;;;;5094073;28;20023;-86
2021/05/31 04:39:20;;;;;;;18.95;13.75;;;15.00;90.60;;;;;;5056530;28;20166;-85
2021/05/31 04:41:46;;;;;;;16.05;12.73;;;15.00;90.60;;;;;;5090774;28;20047;-87
2021/05/31 04:44:12;;;;;;;18.75;12.35;;;15.00;90.70;;;;;;5093835;28;20024;-86
2021/05/31 04:46:38;;;;;;;15.18;12.75;;;15.00;90.70;;;;;;5093644;28;20361;-87
2021/05/31 04:49:04;;;;;;;15.48;12.93;;;15.00;90.70;;;;;;5074607;28;20451;-88
2021/05/31 04:51:30;;;;;;;19.15;13.48;;;15.00;90.70;;;;;;5047571;28;20034;-87
2021/05/31 04:53:57;;;;;;;18.73;13.30;;;15.00;90.60;;;;;;5077287;28;20472;-89
2021/05/31 04:56:24;;;;;;;16.25;12.30;;;15.00;90.60;;;;;;5086411;28;20077;-88
2021/05/31 04:58:50;;;;;;;17.58;12.73;;;15.00;90.50;;;;;;5092154;28;20293;-87
2021/05/31 05:01:15;;;;;;;19.38;12.85;;;15.00;90.60;;;;;;5064039;28;20131;-87
2021/05/31 05:03:41;;;;;;;16.05;12.77;;;15.00;90.70;;;;;;5082710;28;20043;-87
2021/05/31 05:06:07;;;;;;;19.38;13.23;;;15.00;90.80;;;;;;5091070;28;20032;-86
2021/05/31 05:08:33;;;;;;;16.00;12.23;;;15.00;91.00;;;;;;5068339;28;20388;-87
2021/05/31 05:10:59;;;;;;;15.48;12.07;;;15.00;91.00;;;;;;5094278;28;20028;-87
2021/05/31 05:13:24;;;;;;;15.60;12.80;;;15.00;91.00;;;;;;5041841;28;20104;-87
2021/05/31 05:15:50;;;;;;;18.52;12.70;;;15.00;91.00;;;;;;5059021;28;20111;-87
2021/05/31 05:18:16;;;;;;;17.15;12.73;;;15.10;91.10;;;;;;5088029;28;20660;-87
2021/05/31 05:20:42;;;;;;;18.00;12.25;;;15.10;91.20;;;;;;5063358;28;20040;-87
2021/05/31 05:23:07;;;;;;;17.65;13.07;;;15.10;91.10;;;;;;5076621;28;20048;-87
2021/05/31 05:25:33;;;;;;;18.52;13.02;;;15.10;91.20;;;;;;5064478;28;20020;-87
2021/05/31 05:27:59;;;;;;;17.40;12.95;;;15.10;91.00;;;;;;5087948;28;20506;-86
2021/05/31 05:30:26;;;;;;;18.05;12.75;;;15.10;91.00;;;;;;5093087;28;20150;-88
2021/05/31 05:32:59;;;;;;;16.15;12.40;;;15.10;91.10;;;;;;5093388;28;20133;-87
2021/05/31 05:35:29;;;;;;;17.35;12.40;;;15.20;91.00;;;;;;5091595;28;20028;-85
2021/05/31 05:40:55;;;;;;;16.95;12.93;;;15.20;91.30;;;;;;5055828;28;20029;-84
2021/05/31 05:48:38;;;;;;;18.50;12.23;;;15.30;91.40;;;;;;5088798;28;20377;-85
2021/05/31 05:51:05;;;;;;;16.42;12.10;;;15.30;91.40;;;;;;5078111;28;20031;-87
2021/05/31 05:53:35;;;;;;;17.02;12.38;;;15.40;91.40;;;;;;5080179;28;20081;-84
2021/05/31 05:56:03;;;;;;;15.30;11.05;;;15.40;91.60;;;;;;5062427;28;20028;-84
2021/05/31 05:58:29;;;;;;;17.10;13.18;;;15.40;91.90;;;;;;5074411;28;20024;-77
2021/05/31 06:00:59;;;;;;;17.17;13.25;;;15.50;91.60;;;;;;5092460;28;20024;-82
2021/05/31 06:03:26;;;;;;;18.83;11.45;;;15.50;91.40;;;;;;5078080;28;20036;-82
2021/05/31 06:05:54;;;;;;;16.75;11.70;;;15.50;91.40;;;;;;5087689;28;20051;-85
2021/05/31 06:08:20;;;;;;;13.50;10.98;;;15.60;91.50;;;;;;5051368;28;20021;-85
2021/05/31 06:10:49;;;;;;;15.98;11.82;;;15.60;91.50;;;;;;5071439;28;20103;-85
2021/05/31 06:13:15;;;;;;;16.35;12.85;;;15.60;91.60;;;;;;5064818;28;20472;-89
2021/05/31 06:15:41;;;;;;;16.20;13.02;;;15.70;91.40;;;;;;5081186;28;20085;-85
2021/05/31 06:18:07;;;;;;;14.35;11.80;;;15.70;91.30;;;;;;5071255;28;20088;-88
2021/05/31 06:20:37;;;;;;;17.88;11.98;;;15.80;91.40;;;;;;5071637;28;20028;-86
2021/05/31 06:23:03;;;;;;;16.63;12.30;;;15.80;91.30;;;;;;5072014;28;20029;-86
2021/05/31 06:25:29;;;;;;;18.60;13.02;;;15.80;91.10;;;;;;5070110;28;20082;-86
2021/05/31 06:27:55;;;;;;;16.38;12.77;;;15.90;91.10;;;;;;5071030;28;20041;-89
2021/05/31 06:30:22;;;;;;;18.05;13.27;;;15.90;91.00;;;;;;5035736;28;20024;-86
2021/05/31 06:32:49;;;;;;;15.70;11.77;;;16.00;91.00;;;;;;5046803;28;20024;-85
2021/05/31 06:35:15;;;;;;;17.85;12.45;;;16.00;91.10;;;;;;5051721;28;20123;-86
2021/05/31 06:37:41;;;;;;;17.40;12.18;;;16.00;91.10;;;;;;5048909;28;20401;-86
2021/05/31 06:40:12;;;;;;;21.48;12.35;;;16.10;91.00;;;;;;5050664;28;20020;-86
2021/05/31 06:42:48;;;;;;;16.13;11.93;;;16.20;91.00;;;;;;5068002;28;20451;-86
2021/05/31 06:45:26;;;;;;;14.05;11.52;;;16.20;90.90;;;;;;5065835;28;20048;-85
2021/05/31 06:47:54;;;;;;;14.48;11.38;;;16.30;90.90;;;;;;5046254;28;20027;-87
2021/05/31 06:50:21;;;;;;;15.57;11.13;;;16.40;91.10;;;;;;5064792;28;20021;-86
2021/05/31 06:52:48;;;;;;;16.13;12.02;;;16.40;91.20;;;;;;5052984;28;20039;-85
2021/05/31 06:55:15;;;;;;;14.63;11.13;;;16.50;91.20;;;;;;5065806;28;20120;-86
2021/05/31 06:57:41;;;;;;;15.20;11.13;;;16.60;91.20;;;;;;5065837;28;20033;-85
2021/05/31 07:00:11;;;;;;;14.95;11.50;;;16.60;91.10;;;;;;5036328;28;20366;-86
2021/05/31 07:02:37;;;;;;;18.23;11.52;;;16.70;91.20;;;;;;5063495;28;20435;-85
2021/05/31 07:05:04;;;;;;;12.77;9.88;;;16.80;91.00;;;;;;5049999;28;20485;-86
2021/05/31 07:07:30;;;;;;;20.33;11.90;;;16.90;91.00;;;;;;5050647;28;20456;-85
2021/05/31 07:09:56;;;;;;;14.52;11.57;;;17.00;91.10;;;;;;5069993;28;20029;-86
2021/05/31 07:12:22;;;;;;;16.20;12.25;;;17.00;90.90;;;;;;5034641;28;20420;-85
2021/05/31 07:14:50;;;;;;;18.10;12.82;;;17.10;90.80;;;;;;5066851;28;20548;-88
2021/05/31 07:17:16;;;;;;;19.70;12.80;;;17.20;90.70;;;;;;5053012;28;20045;-86
2021/05/31 07:19:44;;;;;;;18.30;11.65;;;17.30;90.50;;;;;;5068719;28;20405;-85
2021/05/31 07:22:14;;;;;;;19.40;12.40;;;17.40;90.50;;;;;;5062822;28;20025;-86
2021/05/31 07:24:40;;;;;;;15.33;12.10;;;17.40;90.50;;;;;;5035810;28;20035;-86
2021/05/31 07:27:06;;;;;;;14.90;11.23;;;17.50;90.30;;;;;;5059875;28;20156;-86
2021/05/31 07:29:32;;;;;;;14.48;11.25;;;17.60;90.30;;;;;;5070611;28;20024;-84
2021/05/31 07:31:58;;;;;;;15.95;11.77;;;17.70;90.30;;;;;;5069531;28;20033;-86
2021/05/31 07:34:23;;;;;;;13.27;11.20;;;17.80;90.20;;;;;;5068186;28;20538;-78
2021/05/31 07:36:49;;;;;;;16.08;11.80;;;17.80;90.30;;;;;;5071379;28;20427;-85
2021/05/31 07:39:15;;;;;;;15.55;11.57;;;18.00;90.20;;;;;;5074421;28;20107;-85
2021/05/31 07:41:40;;;;;;;17.35;11.30;;;18.10;90.20;;;;;;5075350;28;20078;-85
2021/05/31 07:44:06;;;;;;;14.73;10.73;;;18.20;90.20;;;;;;5062507;28;20110;-85
2021/05/31 07:46:32;;;;;;;13.18;10.50;;;18.30;90.20;;;;;;5044819;28;20032;-84
2021/05/31 07:48:58;;;;;;;16.23;10.82;;;18.30;90.10;;;;;;5039866;28;20013;-85
2021/05/31 07:51:26;;;;;;;17.85;10.85;;;18.50;90.00;;;;;;5068513;28;20028;-84
2021/05/31 07:53:54;;;;;;;12.98;10.68;;;18.50;90.00;;;;;;5028731;28;20070;-84
2021/05/31 07:56:22;;;;;;;13.65;10.27;;;18.70;89.90;;;;;;5067060;28;20483;-84
2021/05/31 07:58:48;;;;;;;12.32;9.63;;;18.80;89.30;;;;;;5073180;28;20063;-84
2021/05/31 08:01:14;;;;;;;14.07;9.50;;;18.90;88.80;;;;;;5066438;28;20473;-85
2021/05/31 08:03:41;;;;;;;13.55;9.68;;;18.90;88.40;;;;;;5048983;28;20053;-84
2021/05/31 08:06:07;;;;;;;12.70;9.07;;;19.10;88.40;;;;;;5046129;28;20032;-76
2021/05/31 08:08:33;;;;;;;12.30;9.48;;;19.20;87.90;;;;;;5066234;28;20032;-72
2021/05/31 08:10:59;;;;;;;10.77;9.13;;;19.30;88.00;;;;;;5073571;28;20381;-71
2021/05/31 08:13:25;;;;;;;11.48;8.75;;;19.30;87.70;;;;;;5058375;28;20044;-70
2021/05/31 08:15:51;;;;;;;14.32;10.27;;;19.50;87.70;;;;;;5067788;28;20031;-71
2021/05/31 08:18:18;;;;;;;13.60;9.93;;;19.50;87.50;;;;;;5072093;28;20036;-70
2021/05/31 08:20:45;;;;;;;19.00;9.82;;;19.60;87.30;;;;;;5062118;28;20028;-70
2021/05/31 08:23:11;;;;;;;14.05;9.52;;;19.70;86.60;;;;;;5073844;28;20040;-70
2021/05/31 08:25:37;;;;;;;14.80;9.60;;;19.80;86.20;;;;;;5054175;28;20488;-70
2021/05/31 08:28:03;;;;;;;14.25;8.80;;;19.90;84.60;;;;;;5072269;28;20039;-70
2021/05/31 08:30:31;;;;;;;12.25;8.57;;;19.90;84.90;;;;;;5071900;28;20023;-70
2021/05/31 08:32:58;;;;;;;12.48;9.07;;;20.00;85.00;;;;;;5073160;28;20078;-71
2021/05/31 08:35:24;;;;;;;10.70;7.82;;;20.10;84.50;;;;;;5073801;28;20024;-85
2021/05/31 08:37:50;;;;;;;12.15;8.32;;;20.20;84.50;;;;;;5074954;28;20036;-85
2021/05/31 08:40:16;;;;;;;9.73;7.13;;;20.30;84.50;;;;;;5073317;28;20107;-85
2021/05/31 08:42:42;;;;;;;10.77;7.50;;;20.40;84.50;;;;;;5044116;28;20150;-85
2021/05/31 08:45:11;;;;;;;11.00;6.95;;;20.50;84.30;;;;;;5039441;28;20039;-85
2021/05/31 08:47:43;;;;;;;10.32;7.18;;;20.50;83.70;;;;;;5073266;28;20036;-86
2021/05/31 08:50:10;;;;;;;11.25;7.53;;;20.60;83.60;;;;;;5074561;28;20073;-85
2021/05/31 08:52:37;;;;;;;9.45;7.43;;;20.70;83.20;;;;;;5056908;28;20091;-85
2021/05/31 08:55:08;;;;;;;9.05;6.20;;;20.80;83.00;;;;;;5070923;28;20032;-85
2021/05/31 08:57:34;;;;;;;9.57;6.43;;;20.90;83.10;;;;;;5063590;28;20029;-84
2021/05/31 09:00:00;;;;;;;8.75;6.18;;;21.00;82.40;;;;;;5057801;28;20036;-85
2021/05/31 09:02:32;;;;;;;11.00;6.45;;;21.10;82.00;;;;;;5035052;28;20035;-86
2021/05/31 09:04:59;;;;;;;12.32;6.10;;;21.20;81.70;;;;;;5039798;28;20506;-85
2021/05/31 09:07:25;;;;;;;10.95;6.20;;;21.30;80.50;;;;;;5073475;28;20119;-79
2021/05/31 09:09:53;;;;;;;8.73;5.65;;;21.30;80.30;;;;;;5073150;28;20111;-83
2021/05/31 09:12:38;;;;;;;8.82;5.47;;;21.40;80.10;;;;;;5073104;28;20385;-84
2021/05/31 09:15:09;;;;;;;6.38;4.72;;;21.40;79.10;;;;;;5071799;28;20087;-80
2021/05/31 09:17:36;;;;;;;6.88;5.60;;;21.50;79.00;;;;;;5087825;28;20069;-83
2021/05/31 09:20:04;;;;;;;6.80;4.93;;;21.60;78.40;;;;;;5086292;28;20102;-88
2021/05/31 09:22:29;;;;;;;7.97;5.40;;;21.60;77.60;;;;;;5056680;28;20031;-83
2021/05/31 09:24:58;;;;;;;8.90;5.32;;;21.70;77.20;;;;;;5069270;28;20028;-80
2021/05/31 09:27:24;;;;;;;6.35;4.93;;;21.80;77.00;;;;;;5065397;28;20028;-83
2021/05/31 09:30:07;;;;;;;6.80;4.60;;;21.90;76.30;;;;;;5054696;28;20043;-82
2021/05/31 09:32:33;;;;;;;6.85;4.70;;;22.00;75.30;;;;;;5072862;28;20042;-80
2021/05/31 09:35:05;;;;;;;6.72;4.55;;;22.00;74.20;;;;;;5051527;28;20119;-80
2021/05/31 09:37:31;;;;;;;6.90;4.78;;;22.10;74.00;;;;;;5073963;28;20418;-84
2021/05/31 09:40:07;;;;;;;16.58;5.20;;;22.10;73.50;;;;;;5038971;28;20036;-84
2021/05/31 09:42:33;;;;;;;8.38;5.28;;;22.20;73.40;;;;;;5074521;28;20031;-83
2021/05/31 09:45:08;;;;;;;9.57;6.60;;;22.20;73.10;;;;;;5057642;28;20032;-84
2021/05/31 09:47:36;;;;;;;7.30;5.28;;;22.30;73.20;;;;;;5057582;28;20476;-83
2021/05/31 09:50:06;;;;;;;7.70;5.22;;;22.40;73.60;;;;;;5085657;28;20069;-84
2021/05/31 09:52:33;;;;;;;6.47;4.47;;;22.50;73.30;;;;;;5071262;28;20034;-82
2021/05/31 09:55:03;;;;;;;7.57;5.03;;;22.50;73.60;;;;;;5054884;28;20036;-86
2021/05/31 09:57:36;;;;;;;9.88;5.20;;;22.60;73.50;;;;;;5071474;28;20036;-91
2021/05/31 10:00:20;;;;;;;6.88;4.95;;;22.60;73.20;;;;;;5072720;28;20028;-84
2021/05/31 10:02:57;;;;;;;8.13;4.50;;;22.70;72.50;;;;;;5084256;28;20028;-82
2021/05/31 10:10:25;;;;;;;7.30;4.30;;;22.90;71.80;;;;;;5058954;28;20599;-82
2021/05/31 10:12:52;;;;;;;6.88;3.78;;;23.00;70.50;;;;;;5056999;28;20159;-86
2021/05/31 10:15:30;;;;;;;6.30;3.60;;;23.00;70.90;;;;;;5054142;28;20028;-85
2021/05/31 10:17:58;;;;;;;5.88;3.60;;;23.10;70.20;;;;;;5067641;28;20055;-85
2021/05/31 10:20:27;;;;;;;4.93;3.80;;;23.10;70.20;;;;;;5091611;28;20372;-86
2021/05/31 10:22:53;;;;;;;8.65;4.25;;;23.20;70.50;;;;;;5073098;28;20032;-77
2021/05/31 10:25:20;;;;;;;6.53;3.80;;;23.20;69.30;;;;;;5089424;28;20081;-79
2021/05/31 10:27:50;;;;;;;6.30;3.60;;;23.30;69.50;;;;;;5037430;28;20029;-76
2021/05/31 10:30:19;;;;;;;6.07;3.73;;;23.30;68.90;;;;;;5091737;28;20031;-75
2021/05/31 10:32:44;;;;;;;5.60;4.30;;;23.40;69.50;;;;;;5091314;28;20113;-76
2021/05/31 10:35:22;;;;;;;7.35;4.72;;;23.40;68.80;;;;;;5090787;28;20132;-75
2021/05/31 10:37:56;;;;;;;5.70;4.07;;;23.50;67.30;;;;;;5068027;28;20484;-76
2021/05/31 10:40:34;;;;;;;5.95;4.20;;;23.50;67.30;;;;;;5090987;28;20020;-75
2021/05/31 10:43:05;;;;;;;8.32;4.40;;;23.50;65.90;;;;;;5091000;28;20476;-76
2021/05/31 10:45:31;;;;;;;5.07;3.70;;;23.50;66.10;;;;;;5091277;28;20536;-76
2021/05/31 10:48:15;;;;;;;5.35;3.70;;;23.60;66.80;;;;;;5091110;28;20036;-76
2021/05/31 10:50:46;;;;;;;5.85;3.45;;;23.60;67.00;;;;;;5091258;28;20036;-76
2021/05/31 10:55:50;;;;;;;5.63;3.53;;;23.80;66.80;;;;;;5089541;28;20024;-78
2021/05/31 10:58:17;;;;;;;5.00;4.00;;;23.80;67.80;;;;;;5089730;28;20058;-77
2021/05/31 11:01:04;;;;;;;5.38;3.67;;;23.90;68.30;;;;;;5069530;28;20033;-77
2021/05/31 11:03:31;;;;;;;5.07;3.80;;;23.90;67.20;;;;;;5088765;28;20107;-77
2021/05/31 11:05:57;;;;;;;5.28;3.80;;;24.00;66.40;;;;;;5090989;28;20032;-78
2021/05/31 11:08:31;;;;;;;5.22;3.10;;;24.00;65.50;;;;;;5091192;28;20024;-76
2021/05/31 11:11:00;;;;;;;4.85;3.05;;;24.10;65.80;;;;;;5090067;28;20020;-77
2021/05/31 11:13:25;;;;;;;6.68;3.47;;;24.10;65.60;;;;;;5088820;28;20030;-76
2021/05/31 11:16:06;;;;;;;4.32;3.03;;;24.10;66.00;;;;;;5071011;28;20103;-77
2021/05/31 11:18:40;;;;;;;5.82;3.63;;;24.20;65.70;;;;;;5089264;28;20040;-77
2021/05/31 11:21:06;;;;;;;6.10;3.53;;;24.20;64.30;;;;;;5090462;28;20114;-77
2021/05/31 11:23:32;;;;;;;6.20;3.45;;;24.30;64.60;;;;;;5090568;28;20036;-77
2021/05/31 11:25:58;;;;;;;4.55;3.38;;;24.30;65.60;;;;;;5091081;28;20039;-78
2021/05/31 11:28:24;;;;;;;5.95;3.72;;;24.40;65.20;;;;;;5073052;28;20458;-77
2021/05/31 11:30:51;;;;;;;8.00;3.70;;;24.40;65.40;;;;;;5090641;28;20120;-78
2021/05/31 11:33:17;;;;;;;6.57;3.00;;;24.50;65.70;;;;;;5091037;28;20035;-81
2021/05/31 11:35:46;;;;;;;7.20;3.67;;;24.50;65.40;;;;;;5072502;28;20025;-77
2021/05/31 11:38:19;;;;;;;5.43;3.13;;;24.60;63.70;;;;;;5090648;28;20029;-78
2021/05/31 11:40:45;;;;;;;5.55;2.88;;;24.60;63.20;;;;;;5090793;28;20349;-77
2021/05/31 11:43:14;;;;;;;8.95;3.22;;;24.60;62.00;;;;;;5090865;28;20043;-78
2021/05/31 11:45:41;;;;;;;8.35;3.10;;;24.60;60.80;;;;;;5090567;28;20538;-77
2021/05/31 11:48:09;;;;;;;20.08;4.22;;;24.60;60.40;;;;;;5072665;28;20038;-77
2021/05/31 11:50:40;;;;;;;12.68;3.03;;;24.60;61.40;;;;;;5090573;28;20091;-76
2021/05/31 11:53:06;;;;;;;;;;;24.70;62.00;;;;;;5091138;28;20028;-77
2021/05/31 11:55:32;;;;;;;3.88;2.42;;;24.70;61.20;;;;;;5090897;28;19915;-75
2021/05/31 11:57:58;;;;;;;5.82;3.15;;;24.80;61.10;;;;;;5090629;28;20058;-76
2021/05/31 12:00:30;;;;;;;3.50;2.63;;;24.80;59.10;;;;;;5090742;28;20032;-76
2021/05/31 12:02:56;;;;;;;4.55;2.90;;;24.80;59.40;;;;;;5090139;28;20036;-77
2021/05/31 12:05:29;;;;;;;4.50;3.17;;;24.80;59.70;;;;;;5088394;28;20020;-77
2021/05/31 12:08:01;;;;;;;5.80;3.30;;;24.80;57.60;;;;;;5089909;28;20040;-77
2021/05/31 12:10:27;;;;;;;5.32;2.95;;;24.90;58.40;;;;;;5090150;28;20017;-76
2021/05/31 12:12:52;;;;;;;5.40;3.05;;;24.90;59.80;;;;;;5072308;28;20042;-77
2021/05/31 12:15:18;;;;;;;16.83;3.53;;;24.90;60.60;;;;;;5055019;28;20024;-77
2021/05/31 12:17:45;;;;;;;6.35;3.70;;;25.00;60.60;;;;;;5090712;28;20052;-77
2021/05/31 12:20:11;;;;;;;5.20;3.63;;;25.10;61.00;;;;;;5090330;28;20024;-77
2021/05/31 12:22:38;;;;;;;5.63;3.97;;;25.10;61.20;;;;;;5090105;28;20058;-76
2021/05/31 12:25:08;;;;;;;6.45;3.70;;;25.20;60.60;;;;;;5075916;28;20035;-77
2021/05/31 12:27:39;;;;;;;6.43;4.18;;;25.30;59.90;;;;;;5094045;28;20018;-76
2021/05/31 12:30:08;;;;;;;5.68;3.40;;;25.30;58.50;;;;;;5094198;28;20029;-77
2021/05/31 12:32:34;;;;;;;4.55;2.67;;;25.30;59.30;;;;;;5093462;28;20024;-76
2021/05/31 12:35:00;;;;;;;6.28;3.33;;;25.30;59.70;;;;;;5084158;28;20146;-77
2021/05/31 12:37:31;;;;;;;4.55;2.85;;;25.30;58.50;;;;;;5072485;28;20400;-79
2021/05/31 12:39:58;;;;;;;4.60;2.78;;;25.40;58.80;;;;;;5079534;28;20031;-77
2021/05/31 12:42:29;;;;;;;4.85;2.65;;;25.40;56.70;;;;;;5076825;28;20032;-77
2021/05/31 12:45:12;;;;;;;5.18;3.42;;;25.40;57.10;;;;;;5057074;28;20020;-77
2021/05/31 12:47:43;;;;;;;4.97;3.45;;;25.40;56.40;;;;;;5050576;28;20412;-76
2021/05/31 12:50:12;;;;;;;6.43;3.65;;;25.40;57.40;;;;;;5093850;28;20055;-76
2021/05/31 12:52:46;;;;;;;4.43;3.45;;;25.50;58.60;;;;;;5093225;28;20031;-79
2021/05/31 12:55:24;;;;;;;5.78;4.32;;;25.50;60.70;;;;;;5086525;28;20514;-77
2021/05/31 12:57:50;;;;;;;6.88;4.80;;;25.50;58.70;;;;;;5087895;28;20016;-77
2021/05/31 13:00:18;;;;;;;5.88;3.92;;;25.60;58.80;;;;;;5093829;28;20060;-77
2021/05/31 13:02:53;;;;;;;6.45;4.25;;;25.60;57.90;;;;;;5085827;28;20019;-77